Terminal Aerodrome Forecast
Issued by NWS

Current Version | Previous Version | Graphics & Text | Print | Product List | Glossary On
Versions: 1 2 3 4 5 6 7 8 9 10 11 12 13 14 15 16 17 18 19 20 21 22 23 24
000
FTUS41 KRNK 041135
TAFLWB
TAF
KLWB 041135Z 0412/0512 00000KT P6SM SKC
     FM041400 23006KT P6SM SCT060
     FM041900 24007KT P6SM BKN060
     FM042300 VRB03KT P6SM SCT070 SCT250=

USA.gov is the U.S. government's official web portal to all federal, state and local government web resources and services.